Weather History for Boonville, MO

Change the Weather History Date:

Sunday, April 20, 2014

  Actual Average Record
Temperature  
Mean Temperature 67 °F -  
Max Temperature 84 °F 69 °F 88 °F (1987)
Min Temperature 54 °F 47 °F 29 °F (1953)
Cooling Degree Days 2    
Growing Degree Days 17 (Base 50)    
Moisture  
Dew Point 47 °F    
Average Humidity 47    
Maximum Humidity 63    
Minimum Humidity 30    
Precipitation  
Precipitation 0.00 in - - ()
Sea Level Pressure  
Sea Level Pressure 30.09 in    
Wind  
Wind Speed 6 mph (South)    
Max Wind Speed 13 mph    
Max Gust Speed 17 mph    
Visibility 10 miles    
Events      
Averages and records for this station are not official NWS values.
T = Trace of Precipitation, MM = Missing Value Source: NWS Daily Summary

Daily Weather History Graph

Daily Weather History Graph

Search for Another Location

Airport:

Trip Planner

Search our weather history database for the weather conditions in past years. The results will help you decide how hot, cold, wet, or windy it might be!

Date:

Astronomy

Apr. 20, 2014 Rise Set
Actual Time 6:27 AM CDT 7:52 PM CDT
Civil Twilight 5:59 AM CDT 8:20 PM CDT
Nautical Twilight 5:25 AM CDT 8:54 PM CDT
Astronomical Twilight 4:50 AM CDT 9:29 PM CDT
Moon 12:31 AM CDT (4/20) 10:49 AM CDT (4/20)
Length of Visible Light 14h 21m
Length of Day
13h 25m
Waning Gibbous, 68% of the Moon is Illuminated
Apr 20
Waning Gibbous
Apr 22
Last Quarter
Apr 29
New
May 6
First Quarter
May 14
Full

Hourly Weather History & Observations

Time (CDT) Temp. Dew Point Humidity Pressure Visibility Wind Dir Wind Speed Gust Speed Precip Events Conditions
12:15 AM 59.5 °F 39.7 °F 48% 30.13 in 10.0 mi East 4.6 mph - N/A   Clear
12:35 AM 58.5 °F 40.5 °F 51% 30.12 in 10.0 mi ESE 5.8 mph - N/A   Clear
12:55 AM 58.6 °F 40.5 °F 51% 30.13 in 10.0 mi SE 5.8 mph - N/A   Clear
1:15 AM 59.2 °F 41.0 °F 51% 30.12 in 10.0 mi ESE 6.9 mph - N/A   Clear
1:35 AM 58.6 °F 40.6 °F 51% 30.13 in 10.0 mi ESE 6.9 mph - N/A   Clear
1:55 AM 58.3 °F 40.8 °F 52% 30.13 in 10.0 mi ESE 6.9 mph - N/A   Clear
2:15 AM 58.5 °F 40.6 °F 52% 30.13 in 10.0 mi ESE 10.4 mph - N/A   Clear
2:35 AM 57.9 °F 40.8 °F 53% 30.13 in 10.0 mi SE 9.2 mph - N/A   Clear
2:55 AM 56.8 °F 41.2 °F 56% 30.13 in 10.0 mi SE 6.9 mph - N/A   Clear
3:15 AM 55.6 °F 41.5 °F 59% 30.14 in 10.0 mi SSE 4.6 mph - N/A   Clear
3:35 AM 55.0 °F 41.7 °F 61% 30.14 in 10.0 mi SSE 5.8 mph - N/A   Clear
3:55 AM 55.6 °F 41.5 °F 59% 30.14 in 10.0 mi SSE 6.9 mph - N/A   Clear
4:15 AM 55.8 °F 41.7 °F 59% 30.14 in 10.0 mi SSE 5.8 mph - N/A   Clear
4:35 AM 56.1 °F 41.7 °F 58% 30.14 in 10.0 mi SSE 5.8 mph - N/A   Clear
4:55 AM 56.7 °F 41.9 °F 58% 30.13 in 10.0 mi SSE 9.2 mph - N/A   Clear
5:15 AM 57.0 °F 41.9 °F 57% 30.13 in 10.0 mi South 8.1 mph - N/A   Clear
5:35 AM 57.0 °F 42.3 °F 58% 30.13 in 10.0 mi South 6.9 mph - N/A   Clear
5:55 AM 56.1 °F 42.3 °F 60% 30.13 in 10.0 mi South 6.9 mph - N/A   Clear
6:15 AM 55.8 °F 42.3 °F 60% 30.14 in 10.0 mi South 6.9 mph - N/A   Clear
6:35 AM 55.4 °F 42.3 °F 61% 30.14 in 10.0 mi South 4.6 mph - N/A   Clear
6:55 AM 54.9 °F 42.6 °F 63% 30.14 in 10.0 mi South 5.8 mph - N/A   Clear
7:15 AM 55.8 °F 43.2 °F 63% 30.14 in 10.0 mi SSE 3.5 mph - N/A   Clear
7:35 AM 57.6 °F 44.4 °F 62% 30.14 in 10.0 mi South 3.5 mph - N/A   Clear
7:55 AM 59.7 °F 45.1 °F 59% 30.15 in 10.0 mi South 4.6 mph - N/A   Clear
8:15 AM 61.5 °F 45.7 °F 56% 30.15 in 10.0 mi South 4.6 mph - N/A   Clear
8:35 AM 63.5 °F 46.6 °F 54% 30.15 in 10.0 mi SSW 6.9 mph - N/A   Clear
8:55 AM 65.3 °F 47.7 °F 53% 30.14 in 10.0 mi South 5.8 mph - N/A   Clear
9:15 AM 67.1 °F 48.4 °F 51% 30.14 in 10.0 mi SSW 6.9 mph - N/A   Clear
9:35 AM 69.1 °F 49.1 °F 49% 30.14 in 10.0 mi SSW 8.1 mph - N/A   Clear
9:55 AM 70.2 °F 50.0 °F 49% 30.14 in 10.0 mi SW 8.1 mph - N/A   Clear
10:15 AM 71.8 °F 49.8 °F 46% 30.14 in 10.0 mi SW 8.1 mph - N/A   Clear
10:35 AM 72.7 °F 50.4 °F 45% 30.14 in 10.0 mi SW 9.2 mph - N/A   Clear
10:55 AM 73.4 °F 50.0 °F 44% 30.14 in 10.0 mi SSW 6.9 mph - N/A   Clear
11:15 AM 74.7 °F 50.0 °F 42% 30.14 in 10.0 mi WSW 6.9 mph - N/A   Clear
11:35 AM 75.4 °F 51.1 °F 42% 30.13 in 10.0 mi WSW 8.1 mph - N/A   Clear
11:55 AM 76.3 °F 51.3 °F 41% 30.13 in 10.0 mi SW 9.2 mph - N/A   Clear
12:15 PM 76.5 °F 50.7 °F 40% 30.12 in 10.0 mi SW 8.1 mph - N/A   Clear
12:35 PM 75.6 °F 50.4 °F 41% 30.11 in 10.0 mi SW 6.9 mph 16.1 mph N/A   Scattered Clouds
12:55 PM 76.5 °F 50.0 °F 39% 30.10 in 10.0 mi South 8.1 mph - N/A   Scattered Clouds
1:15 PM 76.1 °F 48.7 °F 38% 30.09 in 10.0 mi South 9.2 mph - N/A   Clear
1:35 PM 77.4 °F 48.6 °F 36% 30.08 in 10.0 mi South 10.4 mph 16.1 mph N/A   Scattered Clouds
1:55 PM 79.2 °F 48.4 °F 34% 30.08 in 10.0 mi South 8.1 mph - N/A   Clear
2:15 PM 78.8 °F 47.8 °F 34% 30.08 in 10.0 mi South 12.7 mph 17.3 mph N/A   Mostly Cloudy
2:35 PM 79.3 °F 47.7 °F 33% 30.07 in 10.0 mi South 10.4 mph 17.3 mph N/A   Scattered Clouds
2:55 PM 79.2 °F 48.0 °F 33% 30.06 in 10.0 mi SSW 3.5 mph - N/A   Mostly Cloudy
3:15 PM 79.7 °F 47.7 °F 32% 30.06 in 10.0 mi South 8.1 mph 17.3 mph N/A   Mostly Cloudy
3:35 PM 80.1 °F 47.3 °F 32% 30.05 in 10.0 mi SW 11.5 mph - N/A   Scattered Clouds
3:55 PM 80.6 °F 46.8 °F 30% 30.05 in 10.0 mi South 9.2 mph - N/A   Scattered Clouds
4:15 PM 79.3 °F 46.6 °F 31% 30.04 in 10.0 mi SSW 9.2 mph - N/A   Scattered Clouds
4:35 PM 79.7 °F 47.8 °F 33% 30.04 in 10.0 mi SSW 6.9 mph - N/A   Scattered Clouds
4:55 PM 78.4 °F 46.6 °F 32% 30.03 in 10.0 mi South 6.9 mph - N/A   Mostly Cloudy
5:15 PM 78.4 °F 46.4 °F 32% 30.03 in 10.0 mi SSW 9.2 mph - N/A   Mostly Cloudy
5:35 PM 78.3 °F 47.1 °F 33% 30.03 in 10.0 mi WSW 5.8 mph - N/A   Scattered Clouds
5:55 PM 76.5 °F 48.6 °F 37% 30.03 in 10.0 mi SW 4.6 mph - N/A   Scattered Clouds
6:15 PM 75.4 °F 49.3 °F 40% 30.02 in 10.0 mi SW 4.6 mph - N/A   Clear
6:35 PM 75.2 °F 48.0 °F 38% 30.01 in 10.0 mi SW 3.5 mph - N/A   Clear
6:55 PM 74.8 °F 48.6 °F 39% 30.01 in 10.0 mi SW 3.5 mph - N/A   Clear
7:15 PM 74.5 °F 48.6 °F 40% 30.01 in 10.0 mi SW 4.6 mph - N/A   Clear
7:35 PM 73.9 °F 48.2 °F 40% 30.01 in 10.0 mi SSW 4.6 mph - N/A   Clear
7:55 PM 73.2 °F 48.4 °F 41% 30.02 in 10.0 mi SW 3.5 mph - N/A   Clear
8:15 PM 72.5 °F 49.1 °F 44% 30.02 in 10.0 mi Calm Calm - N/A   Clear
8:35 PM 72.3 °F 49.1 °F 44% 30.02 in 10.0 mi Calm Calm - N/A   Clear
8:55 PM 71.6 °F 49.3 °F 45% 30.02 in 10.0 mi Calm Calm - N/A   Clear
9:15 PM 70.7 °F 49.8 °F 48% 30.02 in 10.0 mi Calm Calm - N/A   Clear
9:35 PM 70.0 °F 50.2 °F 49% 30.03 in 10.0 mi Calm Calm - N/A   Clear
9:55 PM 68.9 °F 50.5 °F 52% 30.03 in 10.0 mi SW 3.5 mph - N/A   Clear
10:15 PM 68.9 °F 50.4 °F 52% 30.03 in 10.0 mi Calm Calm - N/A   Clear
10:35 PM 69.3 °F 50.0 °F 50% 30.03 in 10.0 mi Calm Calm - N/A   Clear
10:55 PM 68.5 °F 50.2 °F 52% 30.03 in 10.0 mi Calm Calm - N/A   Clear
11:15 PM 68.2 °F 50.4 °F 53% 30.02 in 10.0 mi Calm Calm - N/A   Clear
11:35 PM 67.6 °F 50.4 °F 54% 30.02 in 10.0 mi Calm Calm - N/A   Clear
11:55 PM 67.3 °F 50.4 °F 55% 30.02 in 10.0 mi Calm Calm - N/A   Clear